Time;durP1;ratioP1;P1;durP2;ratioP2;P2;SDS_P1;SDS_P2;PMS_P1;PMS_P2;Temp;Humidity;BMP_temperature;BMP_pressure;BME280_temperature;BME280_humidity;BME280_pressure;Samples;Min_cycle;Max_cycle;Signal;HPM_P1;HPM_P2
2023/01/18 00:02:01;;;;;;;2.17;1.97;;;-1.00;98.20;;;;;;5041220;28;20862;-71
2023/01/18 00:04:28;;;;;;;1.90;1.80;;;-1.00;98.20;;;;;;5053201;28;20490;-71
2023/01/18 00:06:57;;;;;;;1.80;1.70;;;-1.00;98.20;;;;;;5037817;28;20998;-71
2023/01/18 00:09:24;;;;;;;1.80;1.70;;;-1.00;98.20;;;;;;5054372;28;20461;-73
2023/01/18 00:11:51;;;;;;;1.80;1.70;;;-1.00;98.20;;;;;;5040333;28;20502;-71
2023/01/18 00:14:17;;;;;;;1.90;1.80;;;-1.00;98.20;;;;;;5050871;28;20486;-72
2023/01/18 00:16:44;;;;;;;1.80;1.70;;;-1.00;98.20;;;;;;5049951;28;20568;-70
2023/01/18 00:19:12;;;;;;;1.90;1.80;;;-1.10;98.20;;;;;;5062695;28;20458;-72
2023/01/18 00:21:40;;;;;;;1.80;1.70;;;-1.10;98.20;;;;;;5053659;28;20485;-71
2023/01/18 00:24:13;;;;;;;2.00;1.90;;;-1.10;98.20;;;;;;5062826;28;21045;-71
2023/01/18 00:26:41;;;;;;;1.87;1.77;;;-1.10;98.20;;;;;;5037577;28;20482;-71
2023/01/18 00:29:09;;;;;;;2.00;1.90;;;-1.10;98.20;;;;;;5051207;28;20465;-73
2023/01/18 00:31:36;;;;;;;1.80;1.70;;;-1.20;98.20;;;;;;5042765;28;20482;-72
2023/01/18 00:34:03;;;;;;;1.80;1.70;;;-1.20;98.20;;;;;;5047589;28;20496;-72
2023/01/18 00:36:31;;;;;;;1.80;1.70;;;-1.20;98.20;;;;;;5048415;28;20473;-72
2023/01/18 00:38:58;;;;;;;1.80;1.70;;;-1.20;98.20;;;;;;5065658;28;20465;-72
2023/01/18 00:41:26;;;;;;;1.80;1.70;;;-1.20;98.20;;;;;;5048799;28;20916;-72
2023/01/18 00:43:52;;;;;;;1.87;1.77;;;-1.20;98.20;;;;;;5042509;28;20484;-72
2023/01/18 00:46:21;;;;;;;1.80;1.70;;;-1.20;98.20;;;;;;5047826;28;20994;-71
2023/01/18 00:48:48;;;;;;;1.90;1.80;;;-1.20;98.20;;;;;;5041443;28;20481;-71
2023/01/18 00:51:17;;;;;;;1.80;1.70;;;-1.30;98.20;;;;;;5049768;28;20522;-72
2023/01/18 00:53:44;;;;;;;2.00;1.90;;;-1.30;98.20;;;;;;5047087;28;20498;-72
2023/01/18 00:56:13;;;;;;;1.90;1.80;;;-1.30;98.20;;;;;;5042399;28;21066;-72
2023/01/18 00:58:41;;;;;;;1.93;1.83;;;-1.30;98.20;;;;;;5043939;28;20465;-70
2023/01/18 01:01:09;;;;;;;6.53;6.13;;;-1.30;98.20;;;;;;5053591;28;20474;-72
2023/01/18 01:09:05;;;;;;;1.80;1.70;;;-1.40;98.20;;;;;;5051162;28;20528;-71
2023/01/18 01:11:32;;;;;;;1.97;1.83;;;-1.40;98.20;;;;;;5051007;28;20914;-71
2023/01/18 01:27:41;;;;;;;1.90;1.80;;;-1.40;98.20;;;;;;5051460;28;20491;-72
2023/01/18 01:30:10;;;;;;;1.87;1.77;;;-1.40;98.20;;;;;;5069472;28;20461;-71
2023/01/18 01:32:37;;;;;;;1.90;1.80;;;-1.40;98.20;;;;;;5052934;28;20473;-72
2023/01/18 01:35:04;;;;;;;1.90;1.80;;;-1.40;98.20;;;;;;5065737;28;21154;-73
2023/01/18 01:37:31;;;;;;;3.87;3.60;;;-1.40;98.20;;;;;;5052993;28;20884;-74
2023/01/18 01:39:58;;;;;;;1.90;1.80;;;-1.50;98.20;;;;;;5056219;28;20464;-71
2023/01/18 01:42:24;;;;;;;1.80;1.70;;;-1.50;98.20;;;;;;5054190;28;20850;-72
2023/01/18 01:44:51;;;;;;;1.80;1.70;;;-1.50;98.20;;;;;;5059020;28;20938;-71
2023/01/18 01:47:32;;;;;;;1.90;1.80;;;-1.50;98.20;;;;;;5050135;28;20481;-72
2023/01/18 01:50:04;;;;;;;1.87;1.77;;;-1.50;98.20;;;;;;5060438;28;20461;-72
2023/01/18 01:52:35;;;;;;;3.13;2.93;;;-1.50;98.20;;;;;;5046959;28;21164;-72
2023/01/18 01:55:07;;;;;;;1.90;1.80;;;-1.50;98.20;;;;;;5059130;28;20482;-72
2023/01/18 01:57:38;;;;;;;2.10;2.00;;;-1.50;98.20;;;;;;5055794;28;20485;-73
2023/01/18 02:00:09;;;;;;;1.80;1.70;;;-1.50;98.20;;;;;;5057749;28;20473;-72
2023/01/18 02:02:38;;;;;;;1.90;1.80;;;-1.50;98.20;;;;;;5052665;28;20535;-72
2023/01/18 02:05:07;;;;;;;1.90;1.80;;;-1.50;98.20;;;;;;5060736;28;20461;-72
2023/01/18 02:07:34;;;;;;;1.90;1.80;;;-1.60;98.20;;;;;;5055019;28;21004;-71
2023/01/18 02:10:02;;;;;;;1.90;1.80;;;-1.60;98.20;;;;;;5068776;28;20834;-73
2023/01/18 02:12:30;;;;;;;1.90;1.80;;;-1.60;98.20;;;;;;5032197;28;20475;-73
2023/01/18 02:14:58;;;;;;;1.80;1.70;;;-1.60;98.20;;;;;;5052306;28;20485;-71
2023/01/18 02:17:41;;;;;;;1.90;1.80;;;-1.60;98.20;;;;;;5052757;28;21026;-72
2023/01/18 02:20:38;;;;;;;1.90;1.80;;;-1.60;98.20;;;;;;5052400;28;20463;-73
2023/01/18 02:23:28;;;;;;;1.90;1.80;;;-1.60;98.20;;;;;;5050506;28;20481;-72
2023/01/18 02:26:28;;;;;;;1.90;1.80;;;-1.50;98.20;;;;;;5040888;28;20467;-73
2023/01/18 02:29:00;;;;;;;1.90;1.80;;;-1.50;98.20;;;;;;5056875;28;20466;-72
2023/01/18 02:31:31;;;;;;;1.80;1.70;;;-1.50;98.20;;;;;;5043151;28;20473;-72
2023/01/18 02:34:06;;;;;;;1.80;1.70;;;-1.50;98.20;;;;;;5059778;28;20486;-71
2023/01/18 02:36:40;;;;;;;7.50;4.73;;;-1.60;98.20;;;;;;5055004;28;20481;-71
2023/01/18 02:39:22;;;;;;;1.90;1.80;;;-1.60;98.20;;;;;;5060618;28;20484;-73
2023/01/18 02:47:28;;;;;;;2.00;1.90;;;-1.60;98.20;;;;;;5051958;28;20480;-72
2023/01/18 02:49:56;;;;;;;2.00;1.90;;;-1.60;98.20;;;;;;5054364;28;20464;-73
2023/01/18 02:52:39;;;;;;;1.90;1.80;;;-1.60;98.20;;;;;;5026657;28;20557;-73
2023/01/18 02:55:09;;;;;;;3.40;3.20;;;-1.50;98.20;;;;;;5061237;28;20489;-73
2023/01/18 02:57:37;;;;;;;1.90;1.80;;;-1.60;98.20;;;;;;5030320;28;20490;-72
2023/01/18 03:00:10;;;;;;;1.90;1.80;;;-1.60;98.20;;;;;;5063610;28;21236;-71
2023/01/18 03:02:38;;;;;;;1.90;1.80;;;-1.60;98.20;;;;;;5037403;28;20483;-72
2023/01/18 03:05:08;;;;;;;1.90;1.80;;;-1.50;98.20;;;;;;5061356;28;21148;-72
2023/01/18 03:07:40;;;;;;;1.90;1.80;;;-1.50;98.20;;;;;;5035745;28;20565;-72
2023/01/18 03:10:10;;;;;;;1.90;1.80;;;-1.50;98.20;;;;;;5066264;28;20461;-71
2023/01/18 03:12:46;;;;;;;1.90;1.80;;;-1.60;98.20;;;;;;5036256;28;20887;-71
2023/01/18 03:15:20;;;;;;;1.90;1.80;;;-1.60;98.20;;;;;;5063966;28;20481;-72
2023/01/18 03:17:52;;;;;;;1.90;1.80;;;-1.60;98.20;;;;;;5029091;28;20575;-72
2023/01/18 03:20:24;;;;;;;1.90;1.80;;;-1.60;98.20;;;;;;5067964;28;20454;-71
2023/01/18 03:25:42;;;;;;;1.90;1.80;;;-1.60;98.20;;;;;;5066028;28;20453;-74
2023/01/18 03:33:53;;;;;;;1.80;1.70;;;-1.60;98.20;;;;;;5062493;28;20535;-72
2023/01/18 03:36:24;;;;;;;1.97;1.87;;;-1.60;98.20;;;;;;5044940;28;20478;-72
2023/01/18 03:38:55;;;;;;;2.00;1.90;;;-1.70;98.20;;;;;;5052555;28;20460;-74
2023/01/18 03:41:25;;;;;;;1.93;1.83;;;-1.70;98.20;;;;;;5047496;28;20471;-75
2023/01/18 03:43:54;;;;;;;2.10;1.90;;;-1.70;98.20;;;;;;5055244;28;20477;-75
2023/01/18 03:46:25;;;;;;;1.90;1.80;;;-1.70;98.20;;;;;;5045984;28;21069;-73
2023/01/18 03:48:52;;;;;;;1.90;1.80;;;-1.70;98.20;;;;;;5050715;28;20468;-73
2023/01/18 03:51:25;;;;;;;1.90;1.80;;;-1.80;98.20;;;;;;5048915;28;21024;-73
2023/01/18 03:54:00;;;;;;;1.90;1.80;;;-1.70;98.20;;;;;;5052205;28;20477;-73
2023/01/18 03:56:32;;;;;;;1.80;1.70;;;-1.70;98.20;;;;;;5045784;28;20507;-73
2023/01/18 03:59:03;;;;;;;2.20;2.00;;;-1.70;98.20;;;;;;5056406;28;20838;-72
2023/01/18 04:01:31;;;;;;;1.90;1.80;;;-1.70;98.20;;;;;;5045565;28;20479;-75
2023/01/18 04:03:58;;;;;;;1.90;1.80;;;-1.70;98.20;;;;;;5053883;28;20480;-73
2023/01/18 04:06:25;;;;;;;1.80;1.70;;;-1.70;98.20;;;;;;5043109;28;20487;-74
2023/01/18 04:08:52;;;;;;;2.00;1.90;;;-1.70;98.20;;;;;;5045855;28;20462;-73
2023/01/18 04:11:19;;;;;;;1.90;1.80;;;-1.70;98.20;;;;;;5053563;28;20976;-73
2023/01/18 04:13:46;;;;;;;1.90;1.80;;;-1.70;98.20;;;;;;5065481;28;20489;-76
2023/01/18 04:16:13;;;;;;;2.20;2.00;;;-1.70;98.20;;;;;;5049987;28;20482;-75
2023/01/18 04:18:41;;;;;;;1.83;1.73;;;-1.70;98.20;;;;;;5043680;28;20484;-75
2023/01/18 04:21:08;;;;;;;1.90;1.80;;;-1.70;98.20;;;;;;5050125;28;20482;-75
2023/01/18 04:23:34;;;;;;;1.90;1.80;;;-1.70;98.20;;;;;;5045055;28;20485;-74
2023/01/18 04:26:01;;;;;;;1.87;1.77;;;-1.70;98.20;;;;;;5051658;28;20465;-74
2023/01/18 04:28:28;;;;;;;1.80;1.70;;;-1.70;98.20;;;;;;5042609;28;20472;-76
2023/01/18 04:30:56;;;;;;;1.90;1.80;;;-1.70;98.20;;;;;;5055147;28;20466;-74
2023/01/18 04:33:25;;;;;;;2.00;1.90;;;-1.70;98.20;;;;;;5040160;28;20500;-73
2023/01/18 04:35:54;;;;;;;1.90;1.80;;;-1.70;98.20;;;;;;5051534;28;20577;-74
2023/01/18 04:38:21;;;;;;;1.80;1.70;;;-1.70;98.20;;;;;;5057109;28;20509;-72
2023/01/18 04:40:48;;;;;;;1.90;1.80;;;-1.70;98.20;;;;;;5061626;28;20468;-73
2023/01/18 04:43:15;;;;;;;1.97;1.87;;;-1.80;98.20;;;;;;5034559;28;20492;-72
2023/01/18 04:45:45;;;;;;;1.83;1.73;;;-1.80;98.20;;;;;;5065230;28;20977;-73
2023/01/18 04:48:11;;;;;;;1.90;1.80;;;-1.80;98.20;;;;;;5030480;28;20570;-73
2023/01/18 04:50:38;;;;;;;1.80;1.70;;;-1.80;98.20;;;;;;5063604;28;20457;-72
2023/01/18 04:53:06;;;;;;;2.00;1.90;;;-1.80;98.20;;;;;;5049815;28;20485;-72
2023/01/18 04:55:33;;;;;;;1.90;1.80;;;-1.80;98.20;;;;;;5067393;28;20484;-75
2023/01/18 04:58:00;;;;;;;1.90;1.80;;;-1.80;98.20;;;;;;5027097;28;21009;-75
2023/01/18 05:00:27;;;;;;;1.90;1.80;;;-1.80;98.20;;;;;;5059437;28;20461;-74
2023/01/18 05:02:53;;;;;;;2.57;2.37;;;-1.80;98.20;;;;;;5023339;28;20486;-72
2023/01/18 05:05:21;;;;;;;1.90;1.80;;;-1.80;98.20;;;;;;5057417;28;20461;-73
2023/01/18 05:07:47;;;;;;;1.90;1.80;;;-1.80;98.20;;;;;;5023289;28;21006;-72
2023/01/18 05:10:16;;;;;;;2.00;1.90;;;-1.80;98.20;;;;;;5060737;28;20486;-75
2023/01/18 05:12:43;;;;;;;1.87;1.77;;;-1.80;98.20;;;;;;5049934;28;20482;-71
2023/01/18 05:15:10;;;;;;;2.07;1.93;;;-1.80;98.20;;;;;;5055712;28;20494;-73
2023/01/18 05:17:37;;;;;;;1.87;1.77;;;-1.80;98.20;;;;;;5046355;28;20485;-75
2023/01/18 05:20:06;;;;;;;1.80;1.70;;;-1.80;98.20;;;;;;5057821;28;21065;-74
2023/01/18 05:22:35;;;;;;;1.87;1.77;;;-1.80;98.20;;;;;;5044275;28;20503;-71
2023/01/18 05:25:02;;;;;;;1.80;1.70;;;-1.80;98.20;;;;;;5052315;28;20454;-74
2023/01/18 05:27:30;;;;;;;1.90;1.80;;;-1.80;98.20;;;;;;5052833;28;20477;-72
2023/01/18 05:29:58;;;;;;;1.90;1.80;;;-1.80;98.20;;;;;;5055559;28;20453;-74
2023/01/18 05:32:25;;;;;;;1.90;1.80;;;-1.80;98.20;;;;;;5053306;28;21105;-72
2023/01/18 05:34:52;;;;;;;1.90;1.80;;;-1.90;98.20;;;;;;5051395;28;20486;-71
2023/01/18 05:37:19;;;;;;;1.90;1.80;;;-1.90;98.20;;;;;;5029843;28;20898;-72
2023/01/18 05:39:46;;;;;;;1.80;1.70;;;-1.90;98.20;;;;;;5048155;28;20458;-72
2023/01/18 05:42:12;;;;;;;1.80;1.70;;;-1.90;98.20;;;;;;5033942;28;21022;-71
2023/01/18 05:44:40;;;;;;;1.90;1.80;;;-1.90;98.20;;;;;;5054706;28;20473;-72
2023/01/18 05:47:07;;;;;;;1.90;1.80;;;-1.90;98.20;;;;;;5035907;28;20480;-71
2023/01/18 05:49:34;;;;;;;1.90;1.80;;;-1.90;98.20;;;;;;5048582;28;20449;-73
2023/01/18 05:52:01;;;;;;;1.90;1.80;;;-1.90;98.20;;;;;;5036823;28;20484;-75
2023/01/18 05:54:27;;;;;;;1.90;1.80;;;-1.90;98.20;;;;;;5050390;28;20489;-73
2023/01/18 05:56:55;;;;;;;1.90;1.80;;;-1.90;98.20;;;;;;5048401;28;20853;-74
2023/01/18 05:59:22;;;;;;;1.90;1.80;;;-1.90;98.20;;;;;;5069203;28;20453;-74
2023/01/18 06:01:50;;;;;;;1.90;1.80;;;-1.90;98.20;;;;;;5057159;28;20845;-74
2023/01/18 06:04:17;;;;;;;2.00;1.90;;;-1.90;98.20;;;;;;5068460;28;20500;-75
2023/01/18 06:06:43;;;;;;;1.90;1.80;;;-2.00;98.20;;;;;;5041847;28;20570;-72
2023/01/18 06:09:10;;;;;;;1.80;1.70;;;-2.00;98.20;;;;;;5048314;28;20457;-75
2023/01/18 06:11:37;;;;;;;1.90;1.80;;;-2.00;98.20;;;;;;5044526;28;20858;-76
2023/01/18 06:14:04;;;;;;;1.90;1.80;;;-2.00;98.20;;;;;;5046065;28;20800;-73
2023/01/18 06:16:30;;;;;;;1.90;1.80;;;-2.00;98.20;;;;;;5054683;28;20482;-71
2023/01/18 06:18:59;;;;;;;1.90;1.80;;;-2.00;98.20;;;;;;5067259;28;20461;-72
2023/01/18 06:21:25;;;;;;;2.00;1.90;;;-2.00;98.20;;;;;;5047389;28;21011;-72
2023/01/18 06:23:52;;;;;;;2.13;2.00;;;-2.00;98.20;;;;;;5041040;28;20481;-72
2023/01/18 06:26:19;;;;;;;2.00;1.90;;;-2.00;98.20;;;;;;5043408;28;20478;-72
2023/01/18 06:28:46;;;;;;;1.90;1.80;;;-2.00;98.20;;;;;;5043608;28;21001;-72
2023/01/18 06:31:12;;;;;;;1.90;1.80;;;-2.00;98.20;;;;;;5053069;28;20474;-72
2023/01/18 06:33:39;;;;;;;2.03;1.93;;;-2.00;98.20;;;;;;5049433;28;20487;-72
2023/01/18 06:36:08;;;;;;;1.90;1.80;;;-2.00;98.20;;;;;;5054085;28;20481;-72
2023/01/18 06:38:35;;;;;;;1.90;1.80;;;-2.00;98.20;;;;;;5064078;28;20468;-72
2023/01/18 06:41:02;;;;;;;1.90;1.80;;;-2.00;98.20;;;;;;5055916;28;20458;-72
2023/01/18 06:43:29;;;;;;;1.90;1.80;;;-2.10;98.20;;;;;;5070536;28;21004;-72
2023/01/18 06:45:56;;;;;;;1.87;1.77;;;-2.10;98.20;;;;;;5051435;28;20457;-70
2023/01/18 06:48:25;;;;;;;1.90;1.80;;;-2.10;98.20;;;;;;5046657;28;20865;-71
2023/01/18 06:50:52;;;;;;;1.90;1.80;;;-2.10;98.20;;;;;;5055150;28;20469;-70
2023/01/18 06:53:21;;;;;;;1.80;1.70;;;-2.10;98.20;;;;;;5045174;28;20539;-70
2023/01/18 06:55:55;;;;;;;1.90;1.80;;;-2.10;98.20;;;;;;5059557;28;20477;-71
2023/01/18 06:58:22;;;;;;;1.90;1.80;;;-2.10;98.20;;;;;;5046699;28;20479;-70
2023/01/18 07:00:50;;;;;;;1.90;1.80;;;-2.10;98.20;;;;;;5055975;28;20584;-70
2023/01/18 07:03:17;;;;;;;1.90;1.80;;;-2.10;98.20;;;;;;5070647;28;20508;-70
2023/01/18 07:05:45;;;;;;;2.43;2.23;;;-2.10;98.20;;;;;;5064314;28;20540;-71
2023/01/18 07:08:12;;;;;;;1.90;1.80;;;-2.10;98.20;;;;;;5034244;28;20482;-71
2023/01/18 07:10:40;;;;;;;1.90;1.80;;;-2.10;98.20;;;;;;5067169;28;20483;-71
2023/01/18 07:13:06;;;;;;;1.90;1.80;;;-2.10;98.20;;;;;;5054286;28;21020;-73
2023/01/18 07:15:33;;;;;;;1.90;1.80;;;-2.10;98.20;;;;;;5066894;28;20492;-71
2023/01/18 07:18:00;;;;;;;2.10;1.90;;;-2.10;98.20;;;;;;5031181;28;20975;-72
2023/01/18 07:20:28;;;;;;;1.90;1.80;;;-2.10;98.20;;;;;;5067566;28;20462;-73
2023/01/18 07:22:55;;;;;;;1.90;1.80;;;-2.10;98.20;;;;;;5057483;28;20999;-72
2023/01/18 07:25:21;;;;;;;1.90;1.80;;;-2.10;98.20;;;;;;5066688;28;20457;-72
2023/01/18 07:27:50;;;;;;;1.90;1.80;;;-2.10;98.20;;;;;;5034102;28;20575;-72
2023/01/18 07:30:17;;;;;;;1.90;1.80;;;-2.10;98.20;;;;;;5066865;28;21051;-72
2023/01/18 07:32:49;;;;;;;1.80;1.70;;;-2.10;98.20;;;;;;5056383;28;21241;-72
2023/01/18 07:35:18;;;;;;;1.90;1.80;;;-2.10;98.20;;;;;;5069062;28;20564;-72
2023/01/18 07:37:49;;;;;;;1.90;1.80;;;-2.10;98.20;;;;;;5041036;28;20506;-72
2023/01/18 07:40:16;;;;;;;1.80;1.70;;;-2.10;98.20;;;;;;5066790;28;20461;-73
2023/01/18 07:42:43;;;;;;;1.90;1.80;;;-2.10;98.20;;;;;;5035481;28;20501;-72
2023/01/18 07:45:12;;;;;;;1.90;1.80;;;-2.10;98.20;;;;;;5065787;28;20457;-72
2023/01/18 07:47:40;;;;;;;1.90;1.80;;;-2.10;98.20;;;;;;5048897;28;20871;-73
2023/01/18 07:50:07;;;;;;;1.90;1.80;;;-2.10;98.20;;;;;;5064053;28;20461;-73
2023/01/18 07:52:34;;;;;;;2.00;1.90;;;-2.10;98.20;;;;;;5039465;28;20482;-72
2023/01/18 07:55:00;;;;;;;2.00;1.90;;;-2.10;98.20;;;;;;5062636;28;20486;-73
2023/01/18 07:57:27;;;;;;;1.90;1.80;;;-2.10;98.20;;;;;;5054730;28;20859;-72
2023/01/18 07:59:54;;;;;;;2.20;2.00;;;-2.00;98.20;;;;;;5066390;28;21178;-73
2023/01/18 08:02:23;;;;;;;1.90;1.80;;;-2.00;98.20;;;;;;5057455;28;20953;-74
2023/01/18 08:04:49;;;;;;;1.90;1.80;;;-2.00;98.20;;;;;;5063732;28;20502;-74
2023/01/18 08:07:16;;;;;;;1.90;1.80;;;-1.90;98.20;;;;;;5040568;28;20482;-73
2023/01/18 08:09:43;;;;;;;1.80;1.70;;;-1.90;98.20;;;;;;5055002;28;20549;-71
2023/01/18 08:12:12;;;;;;;2.20;2.00;;;-1.90;98.20;;;;;;5039898;28;20889;-70
2023/01/18 08:14:39;;;;;;;1.90;1.80;;;-1.90;98.20;;;;;;5061262;28;20484;-73
2023/01/18 08:17:06;;;;;;;1.90;1.80;;;-1.80;98.20;;;;;;5048653;28;20486;-73
2023/01/18 08:19:35;;;;;;;1.90;1.80;;;-1.80;98.20;;;;;;5064978;28;20469;-71
2023/01/18 08:22:01;;;;;;;1.93;1.83;;;-1.80;98.20;;;;;;5055592;28;20485;-71
2023/01/18 08:24:28;;;;;;;1.90;1.80;;;-1.80;98.20;;;;;;5068892;28;20959;-71
2023/01/18 08:26:56;;;;;;;1.83;1.73;;;-1.70;98.20;;;;;;5041915;28;20940;-72
2023/01/18 08:29:22;;;;;;;1.90;1.80;;;-1.70;98.20;;;;;;5055177;28;20503;-73
2023/01/18 08:31:51;;;;;;;1.80;1.70;;;-1.60;98.20;;;;;;5056242;28;20486;-71
2023/01/18 08:34:19;;;;;;;2.23;2.07;;;-1.60;98.20;;;;;;5070188;28;20587;-71
2023/01/18 08:36:49;;;;;;;1.90;1.80;;;-1.60;98.20;;;;;;5049195;28;20489;-74
2023/01/18 08:39:16;;;;;;;2.00;1.90;;;-1.50;98.20;;;;;;5066032;28;20472;-71
2023/01/18 08:41:43;;;;;;;1.77;1.67;;;-1.50;98.20;;;;;;5050162;28;20489;-72
2023/01/18 08:44:10;;;;;;;1.80;1.70;;;-1.40;98.20;;;;;;5061710;28;21050;-74
2023/01/18 08:46:37;;;;;;;1.80;1.70;;;-1.40;98.20;;;;;;5045821;28;20915;-74
2023/01/18 08:49:05;;;;;;;2.00;1.90;;;-1.30;98.20;;;;;;5054329;28;20556;-73
2023/01/18 08:51:32;;;;;;;1.90;1.80;;;-1.30;98.20;;;;;;5048156;28;20497;-73
2023/01/18 08:54:00;;;;;;;1.80;1.70;;;-1.30;98.20;;;;;;5052905;28;20485;-74
2023/01/18 08:56:27;;;;;;;1.70;1.60;;;-1.20;98.20;;;;;;5052257;28;20474;-74
2023/01/18 08:58:54;;;;;;;1.80;1.70;;;-1.20;98.20;;;;;;5072053;28;20857;-72
2023/01/18 09:01:21;;;;;;;1.90;1.80;;;-1.20;98.20;;;;;;5047205;28;20494;-74
2023/01/18 09:03:49;;;;;;;1.80;1.70;;;-1.10;98.20;;;;;;5044951;28;20555;-73
2023/01/18 09:06:16;;;;;;;1.80;1.70;;;-1.10;98.20;;;;;;5048288;28;20502;-71
2023/01/18 09:08:46;;;;;;;1.80;1.70;;;-1.00;98.20;;;;;;5051430;28;20457;-73
2023/01/18 09:11:15;;;;;;;1.77;1.67;;;-1.00;98.20;;;;;;5048261;28;20478;-74
2023/01/18 09:13:41;;;;;;;1.80;1.70;;;-0.90;98.20;;;;;;5049503;28;20488;-72
2023/01/18 09:16:10;;;;;;;1.80;1.70;;;-0.90;98.20;;;;;;5048624;28;20480;-71
2023/01/18 09:18:37;;;;;;;1.83;1.73;;;-0.80;98.20;;;;;;5047421;28;20465;-73
2023/01/18 09:21:06;;;;;;;1.90;1.80;;;-0.70;98.20;;;;;;5052573;28;20485;-73
2023/01/18 09:23:33;;;;;;;2.17;1.97;;;-0.60;98.20;;;;;;5069281;28;20547;-73
2023/01/18 09:26:02;;;;;;;1.90;1.80;;;-0.50;98.20;;;;;;5051623;28;20453;-73
2023/01/18 09:28:30;;;;;;;1.90;1.80;;;-0.40;98.20;;;;;;5044576;28;20466;-73
2023/01/18 09:31:00;;;;;;;1.90;1.80;;;-0.40;98.20;;;;;;5056333;28;20465;-71
2023/01/18 09:33:26;;;;;;;1.80;1.70;;;-0.30;98.20;;;;;;5053168;28;20838;-73
2023/01/18 09:35:54;;;;;;;2.20;2.00;;;-0.20;98.20;;;;;;5056452;28;20480;-71
2023/01/18 09:38:21;;;;;;;1.90;1.80;;;0.00;98.20;;;;;;5047793;28;20467;-72
2023/01/18 09:40:48;;;;;;;1.80;1.70;;;0.10;98.20;;;;;;5063852;28;20838;-73
2023/01/18 09:43:20;;;;;;;1.90;1.80;;;0.20;98.20;;;;;;5060084;28;20512;-70
2023/01/18 09:45:48;;;;;;;1.80;1.70;;;0.30;98.20;;;;;;5068885;28;20460;-71
2023/01/18 09:48:26;;;;;;;1.90;1.80;;;0.50;98.20;;;;;;5038844;28;20480;-72
2023/01/18 09:50:53;;;;;;;1.70;1.60;;;0.50;98.20;;;;;;5057748;28;20468;-72
2023/01/18 09:53:29;;;;;;;1.70;1.60;;;0.50;98.20;;;;;;5049401;28;20649;-72
2023/01/18 09:56:01;;;;;;;1.80;1.70;;;0.60;98.20;;;;;;5056717;28;20487;-73
2023/01/18 09:58:42;;;;;;;1.70;1.60;;;0.70;98.20;;;;;;5047027;28;20461;-73
2023/01/18 10:01:15;;;;;;;1.70;1.60;;;0.70;98.20;;;;;;5057534;28;20482;-73
2023/01/18 10:03:51;;;;;;;1.70;1.60;;;0.70;98.20;;;;;;5063015;28;20479;-73
2023/01/18 10:06:22;;;;;;;2.00;1.80;;;0.80;98.20;;;;;;5049814;28;21099;-72
2023/01/18 10:08:55;;;;;;;1.93;1.73;;;0.80;98.20;;;;;;5054426;28;20457;-73
2023/01/18 10:11:30;;;;;;;1.80;1.70;;;0.80;98.20;;;;;;5054294;28;20489;-72
2023/01/18 10:14:04;;;;;;;1.83;1.67;;;0.90;98.20;;;;;;5070637;28;20582;-71
2023/01/18 10:16:33;;;;;;;1.70;1.60;;;0.90;98.20;;;;;;5054290;28;20554;-74
2023/01/18 10:19:01;;;;;;;1.87;1.73;;;1.00;98.20;;;;;;5071642;28;20461;-72
2023/01/18 10:21:36;;;;;;;1.80;1.60;;;1.10;98.20;;;;;;5055262;28;20763;-73
2023/01/18 10:24:22;;;;;;;2.03;1.83;;;1.10;98.20;;;;;;5063962;28;20485;-71
2023/01/18 10:26:52;;;;;;;1.70;1.60;;;1.10;98.20;;;;;;5045588;28;20902;-72
2023/01/18 10:29:31;;;;;;;1.70;1.60;;;1.10;98.20;;;;;;5058617;28;20540;-71
2023/01/18 10:32:04;;;;;;;1.80;1.70;;;1.20;98.20;;;;;;5055627;28;20484;-71
2023/01/18 10:34:33;;;;;;;1.70;1.60;;;1.20;98.20;;;;;;5064712;28;20499;-71
2023/01/18 10:37:11;;;;;;;1.70;1.50;;;1.30;98.20;;;;;;5043417;28;20497;-71
2023/01/18 10:39:41;;;;;;;1.73;1.63;;;1.30;98.20;;;;;;5058935;28;20829;-71
2023/01/18 10:42:20;;;;;;;1.70;1.60;;;1.30;98.20;;;;;;5057081;28;20475;-71
2023/01/18 10:44:47;;;;;;;1.70;1.50;;;1.40;98.20;;;;;;5066255;28;20484;-71
2023/01/18 10:47:18;;;;;;;1.70;1.50;;;1.40;98.20;;;;;;5054646;28;20993;-72
2023/01/18 10:49:47;;;;;;;1.80;1.70;;;1.40;98.20;;;;;;5061323;28;20458;-72
2023/01/18 10:52:19;;;;;;;1.70;1.50;;;1.40;98.20;;;;;;5062916;28;20487;-71
2023/01/18 10:54:54;;;;;;;1.70;1.50;;;1.40;98.20;;;;;;5066301;28;20485;-71
2023/01/18 10:57:25;;;;;;;4.00;3.80;;;1.40;98.20;;;;;;5053328;28;20857;-72
2023/01/18 10:59:53;;;;;;;1.80;1.70;;;1.30;98.20;;;;;;5062850;28;20456;-71
2023/01/18 11:02:26;;;;;;;2.63;2.43;;;1.30;98.20;;;;;;5039003;28;20474;-73
2023/01/18 11:04:57;;;;;;;1.70;1.60;;;1.30;98.20;;;;;;5060131;28;20477;-77
2023/01/18 11:07:26;;;;;;;1.70;1.60;;;1.30;98.20;;;;;;5052214;28;20493;-72
2023/01/18 11:09:55;;;;;;;1.70;1.60;;;1.30;98.20;;;;;;5062132;28;20473;-73
2023/01/18 11:15:23;;;;;;;1.67;1.50;;;1.30;98.20;;;;;;5058922;28;20457;-72
2023/01/18 11:18:08;;;;;;;1.77;1.67;;;1.30;98.20;;;;;;5055533;28;20571;-72
2023/01/18 11:20:45;;;;;;;1.63;1.50;;;1.40;98.20;;;;;;5067152;28;20536;-71
2023/01/18 11:23:19;;;;;;;1.70;1.57;;;1.40;98.20;;;;;;5053295;28;20636;-71
2023/01/18 11:25:52;;;;;;;1.80;1.70;;;1.50;98.20;;;;;;5064553;28;20453;-70
2023/01/18 11:28:26;;;;;;;1.90;1.77;;;1.50;98.20;;;;;;5037602;28;21040;-71
2023/01/18 11:30:56;;;;;;;1.70;1.60;;;1.60;98.20;;;;;;5054541;28;20462;-72
2023/01/18 11:33:28;;;;;;;1.70;1.50;;;1.70;98.20;;;;;;5047891;28;20499;-72
2023/01/18 11:35:58;;;;;;;1.70;1.60;;;1.70;98.20;;;;;;5053711;28;20527;-74
2023/01/18 11:38:30;;;;;;;1.70;1.50;;;1.80;98.20;;;;;;5048210;28;21038;-73
2023/01/18 11:41:06;;;;;;;1.70;1.50;;;1.90;98.20;;;;;;5042486;28;20453;-73
2023/01/18 11:43:35;;;;;;;1.70;1.60;;;1.90;98.20;;;;;;5050774;28;20478;-73
2023/01/18 11:46:12;;;;;;;1.70;1.50;;;1.90;98.20;;;;;;5050641;28;20457;-73
2023/01/18 11:48:47;;;;;;;3.40;3.20;;;2.00;98.20;;;;;;5034145;28;20476;-74
2023/01/18 11:51:22;;;;;;;1.70;1.50;;;2.00;98.20;;;;;;5046482;28;20515;-75
2023/01/18 11:53:55;;;;;;;1.70;1.60;;;2.00;98.20;;;;;;5064572;28;20477;-74
2023/01/18 11:56:30;;;;;;;1.70;1.50;;;2.10;98.20;;;;;;5048358;28;20549;-73
2023/01/18 11:58:58;;;;;;;1.70;1.50;;;2.10;98.20;;;;;;5063508;28;20515;-74
2023/01/18 12:01:51;;;;;;;1.63;1.40;;;2.10;98.20;;;;;;5047755;28;20484;-73
2023/01/18 12:04:32;;;;;;;1.70;1.60;;;2.10;98.20;;;;;;5058147;28;20488;-72
2023/01/18 12:07:09;;;;;;;1.70;1.50;;;2.10;98.20;;;;;;5034570;28;20479;-73
2023/01/18 12:09:41;;;;;;;1.63;1.50;;;2.20;98.20;;;;;;5047060;28;20453;-72
2023/01/18 12:12:32;;;;;;;1.70;1.50;;;2.20;98.20;;;;;;5033334;28;20486;-72
2023/01/18 12:15:18;;;;;;;1.70;1.50;;;2.20;98.20;;;;;;5053005;28;20469;-73
2023/01/18 12:17:56;;;;;;;1.70;1.50;;;2.20;98.20;;;;;;5021985;28;21035;-73
2023/01/18 12:20:38;;;;;;;1.70;1.50;;;2.20;98.20;;;;;;5046334;28;20461;-71
2023/01/18 12:23:31;;;;;;;1.70;1.57;;;2.20;98.20;;;;;;5017040;28;21238;-74
2023/01/18 12:26:20;;;;;;;1.67;1.50;;;2.20;98.20;;;;;;5006629;28;20460;-74
2023/01/18 12:29:05;;;;;;;1.70;1.50;;;2.30;98.20;;;;;;5043263;28;20461;-72
2023/01/18 12:31:47;;;;;;;1.70;1.50;;;2.30;98.20;;;;;;5044179;28;20479;-74
2023/01/18 12:34:17;;;;;;;1.70;1.50;;;2.30;98.20;;;;;;5050700;28;20497;-73
2023/01/18 12:37:10;;;;;;;1.70;1.57;;;2.40;98.20;;;;;;5045448;28;21082;-74
2023/01/18 12:40:02;;;;;;;3.80;3.50;;;2.50;98.20;;;;;;5058673;28;20464;-73
2023/01/18 12:42:44;;;;;;;1.70;1.53;;;2.50;98.20;;;;;;5023377;28;20850;-72
2023/01/18 12:45:21;;;;;;;1.70;1.43;;;2.60;98.20;;;;;;5059678;28;20808;-70
2023/01/18 12:48:00;;;;;;;1.67;1.43;;;2.60;98.20;;;;;;5021605;28;20896;-75
2023/01/18 12:50:30;;;;;;;2.03;1.83;;;2.60;98.20;;;;;;5060039;28;20820;-71
2023/01/18 12:53:02;;;;;;;1.63;1.50;;;2.70;98.20;;;;;;5050766;28;20771;-73
2023/01/18 12:55:31;;;;;;;1.70;1.50;;;2.80;98.20;;;;;;5062346;28;20474;-73
2023/01/18 12:57:59;;;;;;;1.70;1.50;;;3.00;98.20;;;;;;5021256;28;20478;-73
2023/01/18 13:00:34;;;;;;;1.70;1.40;;;3.20;98.20;;;;;;5056495;28;20458;-72
2023/01/18 13:03:04;;;;;;;1.70;1.60;;;3.50;98.20;;;;;;5048012;28;20483;-71
2023/01/18 13:05:36;;;;;;;1.67;1.50;;;3.70;98.20;;;;;;5064139;28;20465;-72
2023/01/18 13:08:10;;;;;;;1.70;1.50;;;4.00;98.20;;;;;;5025199;28;21042;-73
2023/01/18 13:10:38;;;;;;;1.70;1.50;;;4.20;98.20;;;;;;5065507;28;20461;-72
2023/01/18 13:13:05;;;;;;;1.67;1.40;;;4.40;98.20;;;;;;5026141;28;20554;-71
2023/01/18 13:15:41;;;;;;;1.67;1.50;;;4.50;98.20;;;;;;5064449;28;20992;-73
2023/01/18 13:18:16;;;;;;;1.80;1.63;;;4.60;98.20;;;;;;5028887;28;20481;-71
2023/01/18 13:20:55;;;;;;;1.70;1.50;;;4.80;98.20;;;;;;5063450;28;20464;-71
2023/01/18 13:23:36;;;;;;;1.67;1.40;;;5.00;98.20;;;;;;5035678;28;20488;-71
2023/01/18 13:26:15;;;;;;;1.70;1.30;;;5.20;98.20;;;;;;5047451;28;20477;-73
2023/01/18 13:28:43;;;;;;;1.70;1.40;;;5.30;98.20;;;;;;5040381;28;20629;-74
2023/01/18 13:31:09;;;;;;;1.70;1.40;;;5.30;98.20;;;;;;5039950;28;20536;-74
2023/01/18 13:33:39;;;;;;;1.70;1.60;;;5.30;98.20;;;;;;5047948;28;20887;-73
2023/01/18 13:36:08;;;;;;;1.63;1.40;;;5.20;98.20;;;;;;5053323;28;20457;-74
2023/01/18 13:38:39;;;;;;;1.70;1.40;;;5.20;98.20;;;;;;5035755;28;20493;-74
2023/01/18 13:41:09;;;;;;;1.67;1.40;;;5.10;98.20;;;;;;5053537;28;20469;-74
2023/01/18 13:44:01;;;;;;;1.70;1.47;;;5.20;98.20;;;;;;5041941;28;20481;-75